sensor_id;sensor_type;location;lat;lon;timestamp;P1;durP1;ratioP1;P2;durP2;ratioP2
13319;SDS011;59599;47.608;12.190;2023-02-24T05:01:36;11.80;;;8.07;;
13319;SDS011;59599;47.608;12.190;2023-02-24T05:04:06;13.90;;;7.30;;
13319;SDS011;59599;47.608;12.190;2023-02-24T05:06:32;15.13;;;7.83;;
13319;SDS011;59599;47.608;12.190;2023-02-24T05:08:59;10.33;;;7.43;;
13319;SDS011;59599;47.608;12.190;2023-02-24T05:11:38;10.43;;;7.53;;
13319;SDS011;59599;47.608;12.190;2023-02-24T05:14:06;10.60;;;8.00;;
13319;SDS011;59599;47.608;12.190;2023-02-24T05:16:32;10.20;;;7.83;;
13319;SDS011;59599;47.608;12.190;2023-02-24T05:18:58;13.03;;;8.13;;
13319;SDS011;59599;47.608;12.190;2023-02-24T05:21:42;9.83;;;6.97;;
13319;SDS011;59599;47.608;12.190;2023-02-24T05:24:07;9.67;;;8.03;;
13319;SDS011;59599;47.608;12.190;2023-02-24T05:26:36;10.67;;;8.00;;
13319;SDS011;59599;47.608;12.190;2023-02-24T05:29:05;11.80;;;7.20;;
13319;SDS011;59599;47.608;12.190;2023-02-24T05:31:32;11.80;;;7.73;;
13319;SDS011;59599;47.608;12.190;2023-02-24T05:33:59;10.57;;;7.57;;
13319;SDS011;59599;47.608;12.190;2023-02-24T05:36:27;12.20;;;7.73;;
13319;SDS011;59599;47.608;12.190;2023-02-24T05:38:54;15.07;;;8.10;;
13319;SDS011;59599;47.608;12.190;2023-02-24T05:41:24;10.37;;;7.93;;
13319;SDS011;59599;47.608;12.190;2023-02-24T05:43:56;11.33;;;8.60;;
13319;SDS011;59599;47.608;12.190;2023-02-24T05:46:24;11.83;;;8.03;;
13319;SDS011;59599;47.608;12.190;2023-02-24T05:48:53;12.47;;;8.13;;
13319;SDS011;59599;47.608;12.190;2023-02-24T05:51:23;12.50;;;8.27;;
13319;SDS011;59599;47.608;12.190;2023-02-24T05:54:02;9.27;;;7.77;;
13319;SDS011;59599;47.608;12.190;2023-02-24T05:56:30;10.37;;;7.27;;
13319;SDS011;59599;47.608;12.190;2023-02-24T05:58:57;12.83;;;8.10;;
13319;SDS011;59599;47.608;12.190;2023-02-24T06:01:30;13.70;;;8.17;;
13319;SDS011;59599;47.608;12.190;2023-02-24T06:04:01;10.07;;;7.83;;
13319;SDS011;59599;47.608;12.190;2023-02-24T06:06:33;11.07;;;8.07;;
13319;SDS011;59599;47.608;12.190;2023-02-24T06:09:05;13.97;;;9.23;;
13319;SDS011;59599;47.608;12.190;2023-02-24T06:11:34;11.43;;;8.40;;
13319;SDS011;59599;47.608;12.190;2023-02-24T06:14:01;11.87;;;8.27;;
13319;SDS011;59599;47.608;12.190;2023-02-24T06:16:27;11.27;;;8.10;;
13319;SDS011;59599;47.608;12.190;2023-02-24T06:18:53;13.57;;;7.60;;
13319;SDS011;59599;47.608;12.190;2023-02-24T06:21:22;10.73;;;8.10;;
13319;SDS011;59599;47.608;12.190;2023-02-24T06:23:49;12.57;;;8.20;;
13319;SDS011;59599;47.608;12.190;2023-02-24T06:26:15;12.57;;;8.07;;
13319;SDS011;59599;47.608;12.190;2023-02-24T06:28:43;14.07;;;8.60;;
13319;SDS011;59599;47.608;12.190;2023-02-24T06:31:13;13.57;;;8.67;;
13319;SDS011;59599;47.608;12.190;2023-02-24T06:33:39;13.93;;;8.50;;
13319;SDS011;59599;47.608;12.190;2023-02-24T06:36:06;17.03;;;10.50;;
13319;SDS011;59599;47.608;12.190;2023-02-24T06:38:33;15.40;;;9.47;;
13319;SDS011;59599;47.608;12.190;2023-02-24T06:41:00;11.67;;;7.60;;
13319;SDS011;59599;47.608;12.190;2023-02-24T06:43:44;10.83;;;7.90;;
13319;SDS011;59599;47.608;12.190;2023-02-24T06:46:11;10.27;;;7.63;;
13319;SDS011;59599;47.608;12.190;2023-02-24T06:48:38;11.67;;;8.23;;
13319;SDS011;59599;47.608;12.190;2023-02-24T06:51:04;12.40;;;8.40;;
13319;SDS011;59599;47.608;12.190;2023-02-24T06:53:40;12.27;;;7.83;;
13319;SDS011;59599;47.608;12.190;2023-02-24T06:56:10;13.47;;;8.83;;
13319;SDS011;59599;47.608;12.190;2023-02-24T06:58:42;13.40;;;8.80;;
13319;SDS011;59599;47.608;12.190;2023-02-24T07:01:10;16.13;;;9.10;;
13319;SDS011;59599;47.608;12.190;2023-02-24T07:03:37;11.50;;;8.43;;
13319;SDS011;59599;47.608;12.190;2023-02-24T07:06:04;11.97;;;7.37;;
13319;SDS011;59599;47.608;12.190;2023-02-24T07:08:47;13.50;;;6.87;;
13319;SDS011;59599;47.608;12.190;2023-02-24T07:11:14;10.47;;;7.87;;
13319;SDS011;59599;47.608;12.190;2023-02-24T07:13:42;13.27;;;7.87;;
13319;SDS011;59599;47.608;12.190;2023-02-24T07:16:08;12.20;;;7.87;;
13319;SDS011;59599;47.608;12.190;2023-02-24T07:18:36;14.55;;;9.15;;
13319;SDS011;59599;47.608;12.190;2023-02-24T07:21:06;13.63;;;8.27;;
13319;SDS011;59599;47.608;12.190;2023-02-24T07:23:40;10.43;;;8.00;;
13319;SDS011;59599;47.608;12.190;2023-02-24T07:26:08;10.80;;;7.80;;
13319;SDS011;59599;47.608;12.190;2023-02-24T07:28:34;10.47;;;8.27;;
13319;SDS011;59599;47.608;12.190;2023-02-24T07:31:04;12.43;;;9.03;;
13319;SDS011;59599;47.608;12.190;2023-02-24T07:33:32;11.97;;;8.40;;
13319;SDS011;59599;47.608;12.190;2023-02-24T07:36:01;11.27;;;7.83;;
13319;SDS011;59599;47.608;12.190;2023-02-24T07:38:33;12.83;;;7.63;;
13319;SDS011;59599;47.608;12.190;2023-02-24T07:41:00;17.00;;;8.03;;
13319;SDS011;59599;47.608;12.190;2023-02-24T07:43:26;10.13;;;7.57;;
13319;SDS011;59599;47.608;12.190;2023-02-24T07:45:52;14.60;;;7.90;;
13319;SDS011;59599;47.608;12.190;2023-02-24T07:48:17;11.70;;;8.23;;
13319;SDS011;59599;47.608;12.190;2023-02-24T07:50:45;10.40;;;8.17;;
13319;SDS011;59599;47.608;12.190;2023-02-24T07:53:11;14.40;;;8.57;;
13319;SDS011;59599;47.608;12.190;2023-02-24T07:55:40;11.50;;;8.30;;
13319;SDS011;59599;47.608;12.190;2023-02-24T07:58:06;12.90;;;7.97;;
13319;SDS011;59599;47.608;12.190;2023-02-24T08:00:32;13.90;;;8.03;;
13319;SDS011;59599;47.608;12.190;2023-02-24T08:03:14;10.03;;;7.17;;
13319;SDS011;59599;47.608;12.190;2023-02-24T08:05:39;9.37;;;7.00;;
13319;SDS011;59599;47.608;12.190;2023-02-24T08:08:07;12.50;;;8.13;;
13319;SDS011;59599;47.608;12.190;2023-02-24T08:10:33;13.03;;;7.90;;
13319;SDS011;59599;47.608;12.190;2023-02-24T08:13:01;16.20;;;11.73;;
13319;SDS011;59599;47.608;12.190;2023-02-24T08:15:28;19.97;;;11.17;;
13319;SDS011;59599;47.608;12.190;2023-02-24T08:17:58;9.73;;;7.77;;
13319;SDS011;59599;47.608;12.190;2023-02-24T08:20:25;15.63;;;8.13;;
13319;SDS011;59599;47.608;12.190;2023-02-24T08:22:53;13.77;;;7.97;;
13319;SDS011;59599;47.608;12.190;2023-02-24T08:25:24;12.67;;;8.10;;
13319;SDS011;59599;47.608;12.190;2023-02-24T08:27:59;11.70;;;7.67;;
13319;SDS011;59599;47.608;12.190;2023-02-24T08:30:30;13.00;;;7.53;;
13319;SDS011;59599;47.608;12.190;2023-02-24T08:33:02;11.47;;;7.60;;
13319;SDS011;59599;47.608;12.190;2023-02-24T08:35:29;12.10;;;8.40;;
13319;SDS011;59599;47.608;12.190;2023-02-24T08:38:07;13.60;;;8.17;;
13319;SDS011;59599;47.608;12.190;2023-02-24T08:40:38;8.90;;;7.10;;
13319;SDS011;59599;47.608;12.190;2023-02-24T08:43:20;11.83;;;7.57;;
13319;SDS011;59599;47.608;12.190;2023-02-24T08:45:56;9.63;;;7.23;;
13319;SDS011;59599;47.608;12.190;2023-02-24T08:48:34;13.80;;;8.33;;
13319;SDS011;59599;47.608;12.190;2023-02-24T08:51:02;11.40;;;7.50;;
13319;SDS011;59599;47.608;12.190;2023-02-24T08:53:29;11.20;;;7.90;;
13319;SDS011;59599;47.608;12.190;2023-02-24T08:55:59;18.43;;;7.73;;
13319;SDS011;59599;47.608;12.190;2023-02-24T08:58:28;13.00;;;6.73;;
13319;SDS011;59599;47.608;12.190;2023-02-24T09:00:55;14.37;;;8.00;;
13319;SDS011;59599;47.608;12.190;2023-02-24T09:03:24;11.90;;;7.23;;
13319;SDS011;59599;47.608;12.190;2023-02-24T09:05:58;13.13;;;7.60;;
13319;SDS011;59599;47.608;12.190;2023-02-24T09:08:33;11.67;;;7.57;;
13319;SDS011;59599;47.608;12.190;2023-02-24T09:11:02;10.93;;;7.13;;
13319;SDS011;59599;47.608;12.190;2023-02-24T09:13:36;14.03;;;7.97;;
13319;SDS011;59599;47.608;12.190;2023-02-24T09:16:07;14.53;;;8.47;;
13319;SDS011;59599;47.608;12.190;2023-02-24T09:18:40;12.13;;;7.87;;
13319;SDS011;59599;47.608;12.190;2023-02-24T09:21:15;14.67;;;8.17;;
13319;SDS011;59599;47.608;12.190;2023-02-24T09:24:00;13.47;;;8.03;;
13319;SDS011;59599;47.608;12.190;2023-02-24T09:26:33;10.80;;;7.73;;
13319;SDS011;59599;47.608;12.190;2023-02-24T09:29:11;10.10;;;7.43;;
13319;SDS011;59599;47.608;12.190;2023-02-24T09:31:56;11.70;;;7.80;;
13319;SDS011;59599;47.608;12.190;2023-02-24T09:34:34;12.30;;;7.77;;
13319;SDS011;59599;47.608;12.190;2023-02-24T09:37:02;10.70;;;7.60;;
13319;SDS011;59599;47.608;12.190;2023-02-24T09:39:29;12.63;;;8.30;;
13319;SDS011;59599;47.608;12.190;2023-02-24T09:42:15;13.47;;;7.70;;
13319;SDS011;59599;47.608;12.190;2023-02-24T09:44:46;13.30;;;7.97;;
13319;SDS011;59599;47.608;12.190;2023-02-24T09:47:17;10.10;;;7.73;;
13319;SDS011;59599;47.608;12.190;2023-02-24T09:49:55;13.83;;;8.67;;
13319;SDS011;59599;47.608;12.190;2023-02-24T09:52:28;14.23;;;9.07;;
13319;SDS011;59599;47.608;12.190;2023-02-24T09:55:05;10.03;;;8.40;;
13319;SDS011;59599;47.608;12.190;2023-02-24T09:57:49;10.17;;;7.80;;
13319;SDS011;59599;47.608;12.190;2023-02-24T10:00:36;13.50;;;8.10;;
13319;SDS011;59599;47.608;12.190;2023-02-24T10:03:18;11.70;;;7.73;;
13319;SDS011;59599;47.608;12.190;2023-02-24T10:08:52;12.83;;;8.33;;
13319;SDS011;59599;47.608;12.190;2023-02-24T10:11:46;11.50;;;8.30;;
13319;SDS011;59599;47.608;12.190;2023-02-24T10:16:55;10.27;;;7.13;;
13319;SDS011;59599;47.608;12.190;2023-02-24T10:19:40;10.60;;;7.70;;
13319;SDS011;59599;47.608;12.190;2023-02-24T10:22:09;12.17;;;8.07;;
13319;SDS011;59599;47.608;12.190;2023-02-24T10:25:03;11.07;;;7.03;;
13319;SDS011;59599;47.608;12.190;2023-02-24T10:30:47;13.50;;;8.20;;
13319;SDS011;59599;47.608;12.190;2023-02-24T10:33:31;12.53;;;7.73;;
13319;SDS011;59599;47.608;12.190;2023-02-24T10:36:24;14.03;;;7.37;;
13319;SDS011;59599;47.608;12.190;2023-02-24T10:38:59;10.40;;;7.83;;
13319;SDS011;59599;47.608;12.190;2023-02-24T10:41:41;10.37;;;6.97;;
13319;SDS011;59599;47.608;12.190;2023-02-24T10:44:21;12.83;;;7.67;;
13319;SDS011;59599;47.608;12.190;2023-02-24T10:46:59;12.53;;;7.50;;
13319;SDS011;59599;47.608;12.190;2023-02-24T10:49:38;10.00;;;7.10;;
13319;SDS011;59599;47.608;12.190;2023-02-24T10:52:21;11.73;;;7.83;;
13319;SDS011;59599;47.608;12.190;2023-02-24T10:55:00;10.47;;;8.00;;
13319;SDS011;59599;47.608;12.190;2023-02-24T10:57:32;11.07;;;7.83;;
13319;SDS011;59599;47.608;12.190;2023-02-24T11:00:05;17.13;;;8.20;;
13319;SDS011;59599;47.608;12.190;2023-02-24T11:02:55;12.47;;;8.13;;
13319;SDS011;59599;47.608;12.190;2023-02-24T11:05:33;11.33;;;8.20;;
13319;SDS011;59599;47.608;12.190;2023-02-24T11:08:25;14.87;;;8.30;;
13319;SDS011;59599;47.608;12.190;2023-02-24T11:11:12;14.90;;;7.93;;
13319;SDS011;59599;47.608;12.190;2023-02-24T11:13:49;12.00;;;7.37;;
13319;SDS011;59599;47.608;12.190;2023-02-24T11:16:48;15.50;;;7.93;;
13319;SDS011;59599;47.608;12.190;2023-02-24T11:19:47;12.10;;;7.60;;
13319;SDS011;59599;47.608;12.190;2023-02-24T11:22:24;10.47;;;7.43;;
13319;SDS011;59599;47.608;12.190;2023-02-24T11:24:56;11.73;;;7.97;;
13319;SDS011;59599;47.608;12.190;2023-02-24T11:27:28;13.02;;;8.43;;
13319;SDS011;59599;47.608;12.190;2023-02-24T11:32:58;12.27;;;7.93;;
13319;SDS011;59599;47.608;12.190;2023-02-24T11:38:56;12.73;;;8.17;;
13319;SDS011;59599;47.608;12.190;2023-02-24T11:41:41;14.50;;;7.70;;
13319;SDS011;59599;47.608;12.190;2023-02-24T11:44:22;16.23;;;8.13;;
13319;SDS011;59599;47.608;12.190;2023-02-24T11:46:54;13.17;;;8.30;;
13319;SDS011;59599;47.608;12.190;2023-02-24T11:51:53;10.67;;;8.30;;
13319;SDS011;59599;47.608;12.190;2023-02-24T11:54:19;13.30;;;8.13;;
13319;SDS011;59599;47.608;12.190;2023-02-24T11:56:49;12.93;;;8.80;;
13319;SDS011;59599;47.608;12.190;2023-02-24T11:59:35;13.33;;;8.93;;
13319;SDS011;59599;47.608;12.190;2023-02-24T12:07:40;12.13;;;8.87;;
13319;SDS011;59599;47.608;12.190;2023-02-24T12:12:52;10.83;;;8.17;;
13319;SDS011;59599;47.608;12.190;2023-02-24T12:18:33;12.00;;;8.57;;
13319;SDS011;59599;47.608;12.190;2023-02-24T12:23:35;18.53;;;9.60;;
13319;SDS011;59599;47.608;12.190;2023-02-24T12:26:12;12.70;;;9.37;;
13319;SDS011;59599;47.608;12.190;2023-02-24T12:31:19;16.27;;;9.57;;
13319;SDS011;59599;47.608;12.190;2023-02-24T12:34:38;15.00;;;8.77;;
13319;SDS011;59599;47.608;12.190;2023-02-24T12:37:17;14.50;;;9.00;;
13319;SDS011;59599;47.608;12.190;2023-02-24T12:39:58;11.87;;;8.50;;
13319;SDS011;59599;47.608;12.190;2023-02-24T12:42:55;14.07;;;9.03;;
13319;SDS011;59599;47.608;12.190;2023-02-24T12:48:27;15.93;;;9.37;;
13319;SDS011;59599;47.608;12.190;2023-02-24T12:51:18;13.77;;;9.43;;
13319;SDS011;59599;47.608;12.190;2023-02-24T12:56:24;15.43;;;8.83;;
13319;SDS011;59599;47.608;12.190;2023-02-24T12:58:57;14.73;;;9.33;;
13319;SDS011;59599;47.608;12.190;2023-02-24T13:07:02;15.17;;;9.30;;
13319;SDS011;59599;47.608;12.190;2023-02-24T13:09:49;12.07;;;8.47;;
13319;SDS011;59599;47.608;12.190;2023-02-24T13:15:20;14.07;;;9.33;;
13319;SDS011;59599;47.608;12.190;2023-02-24T13:17:48;16.73;;;9.93;;
13319;SDS011;59599;47.608;12.190;2023-02-24T13:20:24;18.20;;;10.20;;
13319;SDS011;59599;47.608;12.190;2023-02-24T13:22:52;15.67;;;9.30;;
13319;SDS011;59599;47.608;12.190;2023-02-24T13:25:20;11.77;;;8.17;;
13319;SDS011;59599;47.608;12.190;2023-02-24T13:27:56;11.33;;;8.03;;
13319;SDS011;59599;47.608;12.190;2023-02-24T13:33:19;14.53;;;8.60;;
13319;SDS011;59599;47.608;12.190;2023-02-24T13:35:49;14.40;;;8.00;;
13319;SDS011;59599;47.608;12.190;2023-02-24T13:41:19;11.63;;;7.67;;
13319;SDS011;59599;47.608;12.190;2023-02-24T13:46:20;13.17;;;8.13;;
13319;SDS011;59599;47.608;12.190;2023-02-24T13:56:22;12.03;;;7.23;;
13319;SDS011;59599;47.608;12.190;2023-02-24T13:59:10;11.97;;;6.60;;
13319;SDS011;59599;47.608;12.190;2023-02-24T14:01:57;10.10;;;5.63;;
13319;SDS011;59599;47.608;12.190;2023-02-24T14:04:26;8.50;;;5.67;;
13319;SDS011;59599;47.608;12.190;2023-02-24T14:06:58;12.87;;;6.67;;
13319;SDS011;59599;47.608;12.190;2023-02-24T14:09:29;13.70;;;6.60;;
13319;SDS011;59599;47.608;12.190;2023-02-24T14:11:58;14.00;;;7.00;;
13319;SDS011;59599;47.608;12.190;2023-02-24T14:14:27;8.93;;;6.43;;
13319;SDS011;59599;47.608;12.190;2023-02-24T14:16:54;9.53;;;7.27;;
13319;SDS011;59599;47.608;12.190;2023-02-24T14:19:20;10.77;;;7.30;;
13319;SDS011;59599;47.608;12.190;2023-02-24T14:21:49;13.23;;;8.03;;
13319;SDS011;59599;47.608;12.190;2023-02-24T14:24:17;10.63;;;6.33;;
13319;SDS011;59599;47.608;12.190;2023-02-24T14:26:51;12.67;;;5.87;;
13319;SDS011;59599;47.608;12.190;2023-02-24T14:29:18;8.33;;;5.10;;
13319;SDS011;59599;47.608;12.190;2023-02-24T14:31:47;9.67;;;5.47;;
13319;SDS011;59599;47.608;12.190;2023-02-24T14:34:15;9.87;;;5.00;;
13319;SDS011;59599;47.608;12.190;2023-02-24T14:36:43;8.17;;;5.30;;
13319;SDS011;59599;47.608;12.190;2023-02-24T14:41:38;11.70;;;5.53;;
13319;SDS011;59599;47.608;12.190;2023-02-24T14:44:10;9.57;;;5.57;;
13319;SDS011;59599;47.608;12.190;2023-02-24T14:46:44;11.93;;;5.50;;
13319;SDS011;59599;47.608;12.190;2023-02-24T14:49:12;12.03;;;5.40;;
13319;SDS011;59599;47.608;12.190;2023-02-24T14:51:45;10.00;;;5.70;;
13319;SDS011;59599;47.608;12.190;2023-02-24T14:54:17;12.57;;;5.70;;
13319;SDS011;59599;47.608;12.190;2023-02-24T14:56:50;12.53;;;5.97;;
13319;SDS011;59599;47.608;12.190;2023-02-24T14:59:25;9.03;;;5.57;;
13319;SDS011;59599;47.608;12.190;2023-02-24T15:02:02;10.47;;;5.83;;
13319;SDS011;59599;47.608;12.190;2023-02-24T15:04:34;14.13;;;5.90;;
13319;SDS011;59599;47.608;12.190;2023-02-24T15:07:04;10.20;;;5.13;;
13319;SDS011;59599;47.608;12.190;2023-02-24T15:09:35;11.43;;;5.47;;
13319;SDS011;59599;47.608;12.190;2023-02-24T15:12:10;14.30;;;5.97;;
13319;SDS011;59599;47.608;12.190;2023-02-24T15:14:39;9.73;;;5.80;;
13319;SDS011;59599;47.608;12.190;2023-02-24T15:17:14;9.70;;;5.40;;
13319;SDS011;59599;47.608;12.190;2023-02-24T15:19:42;9.10;;;5.40;;
13319;SDS011;59599;47.608;12.190;2023-02-24T15:22:21;13.97;;;5.20;;
13319;SDS011;59599;47.608;12.190;2023-02-24T15:27:55;9.80;;;5.90;;
13319;SDS011;59599;47.608;12.190;2023-02-24T15:32:58;9.17;;;5.27;;
13319;SDS011;59599;47.608;12.190;2023-02-24T15:35:26;10.13;;;5.63;;
13319;SDS011;59599;47.608;12.190;2023-02-24T15:37:52;7.27;;;4.83;;
13319;SDS011;59599;47.608;12.190;2023-02-24T15:40:20;14.00;;;5.55;;
13319;SDS011;59599;47.608;12.190;2023-02-24T15:42:48;11.23;;;5.43;;
13319;SDS011;59599;47.608;12.190;2023-02-24T15:45:49;13.18;;;6.82;;
13319;SDS011;59599;47.608;12.190;2023-02-24T15:48:19;10.53;;;5.37;;
13319;SDS011;59599;47.608;12.190;2023-02-24T15:50:46;9.05;;;5.75;;
13319;SDS011;59599;47.608;12.190;2023-02-24T15:53:14;12.70;;;5.72;;
13319;SDS011;59599;47.608;12.190;2023-02-24T15:55:40;11.57;;;5.65;;
13319;SDS011;59599;47.608;12.190;2023-02-24T15:58:12;11.03;;;5.87;;
13319;SDS011;59599;47.608;12.190;2023-02-24T16:00:41;13.33;;;6.63;;
13319;SDS011;59599;47.608;12.190;2023-02-24T16:03:07;11.90;;;6.37;;
13319;SDS011;59599;47.608;12.190;2023-02-24T16:05:33;10.30;;;5.83;;
13319;SDS011;59599;47.608;12.190;2023-02-24T16:07:58;11.10;;;6.53;;
13319;SDS011;59599;47.608;12.190;2023-02-24T16:10:25;13.53;;;6.03;;
13319;SDS011;59599;47.608;12.190;2023-02-24T16:12:53;9.90;;;6.60;;
13319;SDS011;59599;47.608;12.190;2023-02-24T16:15:28;13.25;;;6.30;;
13319;SDS011;59599;47.608;12.190;2023-02-24T16:17:55;17.93;;;6.63;;
13319;SDS011;59599;47.608;12.190;2023-02-24T16:20:22;11.37;;;5.73;;
13319;SDS011;59599;47.608;12.190;2023-02-24T16:22:56;10.33;;;5.73;;
13319;SDS011;59599;47.608;12.190;2023-02-24T16:25:24;10.63;;;6.30;;
13319;SDS011;59599;47.608;12.190;2023-02-24T16:27:51;11.83;;;6.30;;
13319;SDS011;59599;47.608;12.190;2023-02-24T16:30:21;11.50;;;5.77;;
13319;SDS011;59599;47.608;12.190;2023-02-24T16:32:49;10.03;;;6.23;;
13319;SDS011;59599;47.608;12.190;2023-02-24T16:35:14;14.30;;;6.33;;
13319;SDS011;59599;47.608;12.190;2023-02-24T16:37:40;12.07;;;6.70;;
13319;SDS011;59599;47.608;12.190;2023-02-24T16:40:19;12.07;;;5.93;;
13319;SDS011;59599;47.608;12.190;2023-02-24T16:42:49;15.50;;;6.93;;
13319;SDS011;59599;47.608;12.190;2023-02-24T16:45:16;13.97;;;7.77;;
13319;SDS011;59599;47.608;12.190;2023-02-24T16:47:42;12.20;;;7.13;;
13319;SDS011;59599;47.608;12.190;2023-02-24T16:50:11;16.57;;;8.13;;
13319;SDS011;59599;47.608;12.190;2023-02-24T16:52:50;11.87;;;7.77;;
13319;SDS011;59599;47.608;12.190;2023-02-24T16:55:16;10.67;;;7.27;;
13319;SDS011;59599;47.608;12.190;2023-02-24T16:57:42;12.30;;;7.13;;
13319;SDS011;59599;47.608;12.190;2023-02-24T17:00:08;10.47;;;6.57;;
13319;SDS011;59599;47.608;12.190;2023-02-24T17:02:35;10.83;;;5.83;;
13319;SDS011;59599;47.608;12.190;2023-02-24T17:05:01;11.17;;;6.40;;
13319;SDS011;59599;47.608;12.190;2023-02-24T17:07:27;13.93;;;6.47;;
13319;SDS011;59599;47.608;12.190;2023-02-24T17:09:52;15.73;;;6.93;;
13319;SDS011;59599;47.608;12.190;2023-02-24T17:12:18;14.33;;;6.73;;
13319;SDS011;59599;47.608;12.190;2023-02-24T17:14:45;18.97;;;9.83;;
13319;SDS011;59599;47.608;12.190;2023-02-24T17:17:11;13.60;;;9.87;;
13319;SDS011;59599;47.608;12.190;2023-02-24T17:19:37;14.50;;;9.00;;
13319;SDS011;59599;47.608;12.190;2023-02-24T17:22:03;14.63;;;8.07;;
13319;SDS011;59599;47.608;12.190;2023-02-24T17:24:28;19.87;;;8.93;;
13319;SDS011;59599;47.608;12.190;2023-02-24T17:26:54;16.07;;;8.83;;
13319;SDS011;59599;47.608;12.190;2023-02-24T17:29:23;14.07;;;8.33;;
13319;SDS011;59599;47.608;12.190;2023-02-24T17:31:49;18.60;;;11.00;;
13319;SDS011;59599;47.608;12.190;2023-02-24T17:34:14;15.17;;;10.60;;
13319;SDS011;59599;47.608;12.190;2023-02-24T17:36:40;16.63;;;10.30;;
13319;SDS011;59599;47.608;12.190;2023-02-24T17:39:06;14.27;;;9.70;;
13319;SDS011;59599;47.608;12.190;2023-02-24T17:41:32;19.70;;;10.13;;
13319;SDS011;59599;47.608;12.190;2023-02-24T17:43:59;16.30;;;9.13;;
13319;SDS011;59599;47.608;12.190;2023-02-24T17:46:25;12.60;;;8.40;;
13319;SDS011;59599;47.608;12.190;2023-02-24T17:48:51;17.00;;;8.77;;
13319;SDS011;59599;47.608;12.190;2023-02-24T17:51:18;14.60;;;8.50;;
13319;SDS011;59599;47.608;12.190;2023-02-24T17:53:44;14.27;;;9.30;;
13319;SDS011;59599;47.608;12.190;2023-02-24T17:56:09;22.17;;;11.43;;
13319;SDS011;59599;47.608;12.190;2023-02-24T17:58:35;21.00;;;11.80;;
13319;SDS011;59599;47.608;12.190;2023-02-24T18:01:02;14.97;;;9.40;;
13319;SDS011;59599;47.608;12.190;2023-02-24T18:03:29;17.13;;;10.10;;
13319;SDS011;59599;47.608;12.190;2023-02-24T18:05:57;18.20;;;11.20;;
13319;SDS011;59599;47.608;12.190;2023-02-24T18:08:23;16.53;;;11.20;;
13319;SDS011;59599;47.608;12.190;2023-02-24T18:10:49;15.33;;;9.50;;
13319;SDS011;59599;47.608;12.190;2023-02-24T18:13:15;15.30;;;8.77;;
13319;SDS011;59599;47.608;12.190;2023-02-24T18:15:41;12.23;;;8.10;;
13319;SDS011;59599;47.608;12.190;2023-02-24T18:18:06;14.83;;;7.37;;
13319;SDS011;59599;47.608;12.190;2023-02-24T18:20:33;11.83;;;6.93;;
13319;SDS011;59599;47.608;12.190;2023-02-24T18:22:59;16.67;;;7.30;;
13319;SDS011;59599;47.608;12.190;2023-02-24T18:25:25;11.80;;;7.50;;
13319;SDS011;59599;47.608;12.190;2023-02-24T18:27:50;16.50;;;9.70;;
13319;SDS011;59599;47.608;12.190;2023-02-24T18:30:16;23.20;;;10.90;;
13319;SDS011;59599;47.608;12.190;2023-02-24T18:32:42;16.83;;;10.40;;
13319;SDS011;59599;47.608;12.190;2023-02-24T18:35:09;18.80;;;13.13;;
13319;SDS011;59599;47.608;12.190;2023-02-24T18:37:38;23.37;;;11.73;;
13319;SDS011;59599;47.608;12.190;2023-02-24T18:40:04;16.33;;;9.87;;
13319;SDS011;59599;47.608;12.190;2023-02-24T18:42:30;16.73;;;10.87;;
13319;SDS011;59599;47.608;12.190;2023-02-24T18:44:56;21.27;;;10.70;;
13319;SDS011;59599;47.608;12.190;2023-02-24T18:47:22;19.67;;;10.40;;
13319;SDS011;59599;47.608;12.190;2023-02-24T18:49:48;19.27;;;10.13;;
13319;SDS011;59599;47.608;12.190;2023-02-24T18:52:14;20.53;;;10.67;;
13319;SDS011;59599;47.608;12.190;2023-02-24T18:54:40;13.07;;;8.20;;
13319;SDS011;59599;47.608;12.190;2023-02-24T18:57:06;17.17;;;7.70;;
13319;SDS011;59599;47.608;12.190;2023-02-24T18:59:31;14.53;;;7.90;;
13319;SDS011;59599;47.608;12.190;2023-02-24T19:01:57;18.63;;;8.50;;
13319;SDS011;59599;47.608;12.190;2023-02-24T19:04:23;14.93;;;8.00;;
13319;SDS011;59599;47.608;12.190;2023-02-24T19:06:48;11.97;;;6.10;;
13319;SDS011;59599;47.608;12.190;2023-02-24T19:09:15;10.87;;;5.93;;
13319;SDS011;59599;47.608;12.190;2023-02-24T19:11:41;11.77;;;5.90;;
13319;SDS011;59599;47.608;12.190;2023-02-24T19:14:07;13.17;;;6.47;;
13319;SDS011;59599;47.608;12.190;2023-02-24T19:16:35;11.03;;;6.13;;
13319;SDS011;59599;47.608;12.190;2023-02-24T19:19:01;12.63;;;6.30;;
13319;SDS011;59599;47.608;12.190;2023-02-24T19:21:27;12.57;;;5.93;;
13319;SDS011;59599;47.608;12.190;2023-02-24T19:23:54;12.73;;;5.33;;
13319;SDS011;59599;47.608;12.190;2023-02-24T19:26:21;12.83;;;5.03;;
13319;SDS011;59599;47.608;12.190;2023-02-24T19:28:47;8.07;;;4.17;;
13319;SDS011;59599;47.608;12.190;2023-02-24T19:31:14;11.33;;;4.30;;
13319;SDS011;59599;47.608;12.190;2023-02-24T19:33:41;8.63;;;4.53;;
13319;SDS011;59599;47.608;12.190;2023-02-24T19:36:08;11.70;;;4.70;;
13319;SDS011;59599;47.608;12.190;2023-02-24T19:38:34;8.50;;;3.50;;
13319;SDS011;59599;47.608;12.190;2023-02-24T19:41:01;8.03;;;4.73;;
13319;SDS011;59599;47.608;12.190;2023-02-24T19:43:26;10.60;;;4.90;;
13319;SDS011;59599;47.608;12.190;2023-02-24T19:45:52;9.10;;;4.67;;
13319;SDS011;59599;47.608;12.190;2023-02-24T19:48:18;11.73;;;4.83;;
13319;SDS011;59599;47.608;12.190;2023-02-24T19:50:44;12.13;;;5.53;;
13319;SDS011;59599;47.608;12.190;2023-02-24T19:53:10;9.73;;;5.93;;
13319;SDS011;59599;47.608;12.190;2023-02-24T19:55:36;8.33;;;5.47;;
13319;SDS011;59599;47.608;12.190;2023-02-24T19:58:02;11.17;;;6.57;;
13319;SDS011;59599;47.608;12.190;2023-02-24T20:00:28;11.80;;;6.03;;
13319;SDS011;59599;47.608;12.190;2023-02-24T20:02:54;10.10;;;6.43;;
13319;SDS011;59599;47.608;12.190;2023-02-24T20:05:20;9.73;;;5.53;;
13319;SDS011;59599;47.608;12.190;2023-02-24T20:07:46;10.83;;;6.70;;
13319;SDS011;59599;47.608;12.190;2023-02-24T20:10:14;11.07;;;5.73;;
13319;SDS011;59599;47.608;12.190;2023-02-24T20:12:40;14.73;;;6.57;;
13319;SDS011;59599;47.608;12.190;2023-02-24T20:15:06;12.30;;;7.53;;
13319;SDS011;59599;47.608;12.190;2023-02-24T20:17:33;17.57;;;7.93;;
13319;SDS011;59599;47.608;12.190;2023-02-24T20:19:59;18.40;;;9.90;;
13319;SDS011;59599;47.608;12.190;2023-02-24T20:22:25;16.87;;;8.00;;
13319;SDS011;59599;47.608;12.190;2023-02-24T20:24:50;19.27;;;10.37;;
13319;SDS011;59599;47.608;12.190;2023-02-24T20:27:16;14.47;;;6.67;;
13319;SDS011;59599;47.608;12.190;2023-02-24T20:29:43;10.03;;;6.20;;
13319;SDS011;59599;47.608;12.190;2023-02-24T20:32:09;12.37;;;6.20;;
13319;SDS011;59599;47.608;12.190;2023-02-24T20:34:35;13.07;;;7.83;;
13319;SDS011;59599;47.608;12.190;2023-02-24T20:37:02;16.20;;;8.57;;
13319;SDS011;59599;47.608;12.190;2023-02-24T20:39:29;16.87;;;8.93;;
13319;SDS011;59599;47.608;12.190;2023-02-24T20:41:56;25.87;;;15.33;;
13319;SDS011;59599;47.608;12.190;2023-02-24T20:44:23;18.83;;;13.03;;
13319;SDS011;59599;47.608;12.190;2023-02-24T20:46:48;13.73;;;8.37;;
13319;SDS011;59599;47.608;12.190;2023-02-24T20:49:14;10.77;;;6.37;;
13319;SDS011;59599;47.608;12.190;2023-02-24T20:51:39;13.17;;;6.23;;
13319;SDS011;59599;47.608;12.190;2023-02-24T20:54:06;12.47;;;7.43;;